Exeter, New Hampshire
Current Conditions -  °F | °C
As of 11:58 PM on Monday 20 Oct 2014 (Local Time) from KPSM Reporting Station
Overcast Overcast  
Wind Chill: 47°   Ceiling: 11000
Heat Index: 47°   Visibility: 10mi
Dew Point: 37°   Wind: 3mph
Humidity: 67%   Direction: 180°S
Pressure: 30"   Gusts: NA
Location:  42.98°N, 70.95°W
Report Text: KPSM 210358Z 18003KT 10SM OVC110 09/03 A3000 RMK AO2A SLPNO T00850027
Loading
Personal Weather Stations






























Interactive Weather Map New forecast layout! Learn more

10-Day Weather Forecast

Advertisements
Track Severe Weather on mobile